createdAt,value
2022-12-25T00:00:29.258Z,3.55
2022-12-25T00:02:57.915Z,3.15
2022-12-25T00:05:26.338Z,3.55
2022-12-25T00:07:55.399Z,3.90
2022-12-25T00:10:24.016Z,3.83
2022-12-25T00:12:53.480Z,3.80
2022-12-25T00:15:22.125Z,3.67
2022-12-25T00:17:50.207Z,3.30
2022-12-25T00:20:18.797Z,3.20
2022-12-25T00:22:47.363Z,3.53
2022-12-25T00:25:15.880Z,3.30
2022-12-25T00:27:43.952Z,3.30
2022-12-25T00:30:14.339Z,3.95
2022-12-25T00:32:42.438Z,3.10
2022-12-25T00:35:11.423Z,4.00
2022-12-25T00:37:39.469Z,3.13
2022-12-25T00:40:09.341Z,3.58
2022-12-25T00:42:37.405Z,3.85
2022-12-25T00:45:07.150Z,3.45
2022-12-25T00:47:36.605Z,3.17
2022-12-25T00:50:05.710Z,2.78
2022-12-25T00:52:34.098Z,3.00
2022-12-25T00:55:02.765Z,3.33
2022-12-25T00:57:30.859Z,2.90
2022-12-25T00:59:59.033Z,3.30
2022-12-25T01:02:27.786Z,2.90
2022-12-25T01:04:58.197Z,3.67
2022-12-25T01:07:28.442Z,2.97
2022-12-25T01:10:14.449Z,3.67
2022-12-25T01:12:43.735Z,3.37
2022-12-25T01:15:13.831Z,3.30
2022-12-25T01:17:42.089Z,3.50
2022-12-25T01:20:14.791Z,3.40
2022-12-25T01:22:43.333Z,2.87
2022-12-25T01:25:12.789Z,3.30
2022-12-25T01:27:42.776Z,3.90
2022-12-25T01:30:12.129Z,3.38
2022-12-25T01:32:40.703Z,3.37
2022-12-25T01:35:09.392Z,3.47
2022-12-25T01:37:39.312Z,3.40
2022-12-25T01:40:09.320Z,3.45
2022-12-25T01:42:37.465Z,3.30
2022-12-25T01:45:37.520Z,3.45
2022-12-25T01:48:09.751Z,3.60
2022-12-25T01:50:42.200Z,3.30
2022-12-25T01:53:12.400Z,3.67
2022-12-25T01:55:42.940Z,4.05
2022-12-25T01:58:11.691Z,3.60
2022-12-25T02:00:40.378Z,3.90
2022-12-25T02:03:08.742Z,3.75
2022-12-25T02:05:37.501Z,3.70
2022-12-25T02:08:11.205Z,3.43
2022-12-25T02:10:41.183Z,3.80
2022-12-25T02:13:10.094Z,3.73
2022-12-25T02:15:48.773Z,3.77
2022-12-25T02:18:24.743Z,3.50
2022-12-25T02:21:14.677Z,2.97
2022-12-25T02:24:19.343Z,3.27
2022-12-25T02:27:01.755Z,3.10
2022-12-25T02:29:38.295Z,3.33
2022-12-25T02:32:14.370Z,3.95
2022-12-25T02:34:48.066Z,3.80
2022-12-25T02:37:20.664Z,3.63
2022-12-25T02:40:00.769Z,3.47
2022-12-25T02:42:54.022Z,3.57
2022-12-25T02:45:47.494Z,3.47
2022-12-25T02:48:35.640Z,3.07
2022-12-25T02:51:24.157Z,3.30
2022-12-25T02:54:21.086Z,3.37
2022-12-25T02:57:09.077Z,3.65
2022-12-25T02:59:57.082Z,3.33
2022-12-25T03:02:46.542Z,3.15
2022-12-25T03:05:36.575Z,3.20
2022-12-25T03:08:09.865Z,3.33
2022-12-25T03:10:58.692Z,3.23
2022-12-25T03:13:32.644Z,3.35
2022-12-25T03:16:18.672Z,3.47
2022-12-25T03:18:48.811Z,2.93
2022-12-25T03:21:34.477Z,3.50
2022-12-25T03:24:17.882Z,3.53
2022-12-25T03:26:58.477Z,3.30
2022-12-25T03:29:47.499Z,2.80
2022-12-25T03:32:27.756Z,3.10
2022-12-25T03:35:24.303Z,3.20
2022-12-25T03:38:32.172Z,2.70
2022-12-25T03:41:27.395Z,2.37
2022-12-25T03:44:30.701Z,2.63
2022-12-25T03:47:25.695Z,2.50
2022-12-25T03:50:22.125Z,2.73
2022-12-25T03:53:09.764Z,2.60
2022-12-25T03:55:55.295Z,2.67
2022-12-25T03:58:43.470Z,2.72
2022-12-25T04:01:34.589Z,3.17
2022-12-25T04:04:20.832Z,3.10
2022-12-25T04:07:07.600Z,3.17
2022-12-25T04:09:53.420Z,3.03
2022-12-25T04:12:38.887Z,3.17
2022-12-25T04:15:25.895Z,2.63
2022-12-25T04:18:11.523Z,3.00
2022-12-25T04:20:57.299Z,3.10
2022-12-25T04:23:44.174Z,2.90
2022-12-25T04:26:30.031Z,2.83
2022-12-25T04:29:16.009Z,4.80
2022-12-25T04:32:02.154Z,4.80
2022-12-25T04:34:47.727Z,4.00
2022-12-25T04:37:16.317Z,3.47
2022-12-25T04:39:45.825Z,3.57
2022-12-25T04:42:13.944Z,3.53
2022-12-25T04:44:42.054Z,3.00
2022-12-25T04:47:11.693Z,3.10
2022-12-25T04:49:40.920Z,3.43
2022-12-25T04:52:09.581Z,3.27
2022-12-25T04:54:39.240Z,2.90
2022-12-25T04:57:09.220Z,3.20
2022-12-25T04:59:38.990Z,3.27
2022-12-25T05:02:07.183Z,2.83
2022-12-25T05:04:35.468Z,3.00
2022-12-25T05:07:04.095Z,3.23
2022-12-25T05:09:32.640Z,2.83
2022-12-25T05:12:01.224Z,3.10
2022-12-25T05:14:33.793Z,2.67
2022-12-25T05:17:02.348Z,3.00
2022-12-25T05:19:30.906Z,3.00
2022-12-25T05:21:59.075Z,2.80
2022-12-25T05:24:28.942Z,2.97
2022-12-25T05:26:57.118Z,3.23
2022-12-25T05:29:25.691Z,3.43
2022-12-25T05:31:55.124Z,3.10
2022-12-25T05:34:23.867Z,3.00
2022-12-25T05:36:51.929Z,3.03
2022-12-25T05:39:20.700Z,2.93
2022-12-25T05:41:49.264Z,2.77
2022-12-25T05:44:17.833Z,2.97
2022-12-25T05:46:46.433Z,3.13
2022-12-25T05:49:15.901Z,2.83
2022-12-25T05:51:44.482Z,2.90
2022-12-25T05:54:12.526Z,3.10
2022-12-25T05:56:41.082Z,3.87
2022-12-25T05:59:09.640Z,3.37
2022-12-25T06:01:37.875Z,3.07
2022-12-25T06:04:12.247Z,3.03
2022-12-25T06:06:42.290Z,3.30
2022-12-25T06:09:13.827Z,2.87
2022-12-25T06:11:42.483Z,3.10
2022-12-25T06:14:16.433Z,3.17
2022-12-25T06:16:44.615Z,2.70
2022-12-25T06:19:13.219Z,2.93
2022-12-25T06:21:43.151Z,2.67
2022-12-25T06:24:17.640Z,3.27
2022-12-25T06:26:49.484Z,3.07
2022-12-25T06:29:17.862Z,3.30
2022-12-25T06:31:46.458Z,3.40
2022-12-25T06:34:16.493Z,4.30
2022-12-25T06:36:46.466Z,3.87
2022-12-25T06:39:14.559Z,4.03
2022-12-25T06:41:42.628Z,3.53
2022-12-25T06:44:11.289Z,3.83
2022-12-25T06:46:39.419Z,4.50
2022-12-25T06:49:08.105Z,3.90
2022-12-25T06:51:36.161Z,4.07
2022-12-25T06:54:06.510Z,3.67
2022-12-25T06:56:35.335Z,3.37
2022-12-25T06:59:05.712Z,4.07
2022-12-25T07:01:37.460Z,2.97
2022-12-25T07:04:09.256Z,3.00
2022-12-25T07:06:37.367Z,3.10
2022-12-25T07:09:07.361Z,3.50
2022-12-25T07:11:35.423Z,2.90
2022-12-25T07:14:05.255Z,3.40
2022-12-25T07:16:33.460Z,2.90
2022-12-25T07:19:02.658Z,2.80
2022-12-25T07:21:31.218Z,3.03
2022-12-25T07:23:59.342Z,2.83
2022-12-25T07:26:29.275Z,3.20
2022-12-25T07:28:58.047Z,3.20
2022-12-25T07:31:26.619Z,2.83
2022-12-25T07:33:55.445Z,3.20
2022-12-25T07:36:23.753Z,2.90
2022-12-25T07:38:52.461Z,2.70
2022-12-25T07:41:21.080Z,2.50
2022-12-25T07:43:53.026Z,2.87
2022-12-25T07:46:22.717Z,2.50
2022-12-25T07:48:50.957Z,2.80
2022-12-25T07:51:19.538Z,2.50
2022-12-25T07:53:47.619Z,2.70
2022-12-25T07:56:18.375Z,3.00
2022-12-25T07:58:46.873Z,2.77
2022-12-25T08:01:20.096Z,3.27
2022-12-25T08:03:51.996Z,3.57
2022-12-25T08:06:21.112Z,2.93
2022-12-25T08:08:49.493Z,3.13
2022-12-25T08:11:17.597Z,2.97
2022-12-25T08:13:46.263Z,2.63
2022-12-25T08:16:15.784Z,2.80
2022-12-25T08:18:44.502Z,2.90
2022-12-25T08:21:14.788Z,3.03
2022-12-25T08:23:44.723Z,2.57
2022-12-25T08:26:15.707Z,3.20
2022-12-25T08:28:44.283Z,3.17
2022-12-25T08:31:19.245Z,3.03
2022-12-25T08:33:48.076Z,3.30
2022-12-25T08:36:18.680Z,3.47
2022-12-25T08:38:47.264Z,4.27
2022-12-25T08:41:16.424Z,3.77
2022-12-25T08:43:44.579Z,3.78
2022-12-25T08:46:13.431Z,3.47
2022-12-25T08:48:45.638Z,3.40
2022-12-25T08:51:16.377Z,4.33
2022-12-25T08:53:45.040Z,3.95
2022-12-25T08:56:14.249Z,4.10
2022-12-25T08:58:43.058Z,3.97
2022-12-25T09:01:11.511Z,4.47
2022-12-25T09:03:40.257Z,4.55
2022-12-25T09:06:12.287Z,4.75
2022-12-25T09:08:47.715Z,4.53
2022-12-25T09:11:19.072Z,4.10
2022-12-25T09:13:48.059Z,3.75
2022-12-25T09:16:18.967Z,3.60
2022-12-25T09:18:47.401Z,3.15
2022-12-25T09:21:18.432Z,3.30
2022-12-25T09:23:46.875Z,3.20
2022-12-25T09:26:16.728Z,3.63
2022-12-25T09:28:50.793Z,3.42
2022-12-25T09:31:20.405Z,3.20
2022-12-25T09:33:48.966Z,3.55
2022-12-25T09:36:24.896Z,3.30
2022-12-25T09:38:55.087Z,3.47
2022-12-25T09:41:30.560Z,3.70
2022-12-25T09:44:06.405Z,3.70
2022-12-25T09:46:43.749Z,3.10
2022-12-25T09:49:19.662Z,3.83
2022-12-25T09:51:53.801Z,3.80
2022-12-25T09:54:30.499Z,3.42
2022-12-25T09:56:59.549Z,3.38
2022-12-25T09:59:28.366Z,3.03
2022-12-25T10:02:16.142Z,3.38
2022-12-25T10:04:58.758Z,2.75
2022-12-25T10:07:38.166Z,2.93
2022-12-25T10:10:21.772Z,2.85
2022-12-25T10:13:00.476Z,3.30
2022-12-25T10:15:39.295Z,2.80
2022-12-25T10:18:33.838Z,3.05
2022-12-25T10:21:11.068Z,2.72
2022-12-25T10:23:45.783Z,2.70
2022-12-25T10:26:17.364Z,2.45
2022-12-25T10:28:47.793Z,2.60
2022-12-25T10:31:21.842Z,2.75
2022-12-25T10:33:51.334Z,3.35
2022-12-25T10:36:22.128Z,2.47
2022-12-25T10:38:52.298Z,3.10
2022-12-25T10:41:32.297Z,2.90
2022-12-25T10:44:00.805Z,2.70
2022-12-25T10:46:30.736Z,2.78
2022-12-25T10:49:00.522Z,3.33
2022-12-25T10:51:34.039Z,3.10
2022-12-25T10:54:20.271Z,3.10
2022-12-25T10:56:54.636Z,2.60
2022-12-25T10:59:22.828Z,3.45
2022-12-25T11:01:55.172Z,2.88
2022-12-25T11:04:28.495Z,3.30
2022-12-25T11:07:02.730Z,2.45
2022-12-25T11:09:32.732Z,2.92
2022-12-25T11:12:02.416Z,3.03
2022-12-25T11:14:31.237Z,3.30
2022-12-25T11:17:09.992Z,3.15
2022-12-25T11:19:38.097Z,2.55
2022-12-25T11:22:18.183Z,2.90
2022-12-25T11:24:49.167Z,2.92
2022-12-25T11:27:26.910Z,3.38
2022-12-25T11:29:59.810Z,3.65
2022-12-25T11:32:32.866Z,4.43
2022-12-25T11:35:03.540Z,3.35
2022-12-25T11:37:36.759Z,3.17
2022-12-25T11:40:09.212Z,2.78
2022-12-25T11:42:41.209Z,2.70
2022-12-25T11:45:14.841Z,2.72
2022-12-25T11:47:49.821Z,2.45
2022-12-25T11:50:24.526Z,2.60
2022-12-25T11:52:54.745Z,2.78
2022-12-25T11:55:30.579Z,2.70
2022-12-25T11:58:02.923Z,2.67
2022-12-25T12:00:35.030Z,2.90
2022-12-25T12:03:10.468Z,2.90
2022-12-25T12:05:45.745Z,3.80
2022-12-25T12:08:15.642Z,4.03
2022-12-25T12:11:16.432Z,3.50
2022-12-25T12:13:55.361Z,3.17
2022-12-25T12:16:23.603Z,2.58
2022-12-25T12:18:51.771Z,2.92
2022-12-25T12:21:26.032Z,2.85
2022-12-25T12:23:58.848Z,2.58
2022-12-25T12:26:31.182Z,2.42
2022-12-25T12:29:02.517Z,2.45
2022-12-25T12:31:41.781Z,2.17
2022-12-25T12:34:22.838Z,2.40
2022-12-25T12:37:00.993Z,2.00
2022-12-25T12:39:34.945Z,2.35
2022-12-25T12:42:13.296Z,2.00
2022-12-25T12:44:41.592Z,2.00
2022-12-25T12:47:28.242Z,2.25
2022-12-25T12:49:59.737Z,1.98
2022-12-25T12:52:33.651Z,2.25
2022-12-25T12:55:06.766Z,1.88
2022-12-25T12:57:39.792Z,2.15
2022-12-25T13:00:17.112Z,2.08
2022-12-25T13:03:18.766Z,2.20
2022-12-25T13:05:50.840Z,2.25
2022-12-25T13:08:32.814Z,2.05
2022-12-25T13:11:10.085Z,2.08
2022-12-25T13:13:42.625Z,2.03
2022-12-25T13:16:19.229Z,2.20
2022-12-25T13:18:47.646Z,2.08
2022-12-25T13:21:21.086Z,2.20
2022-12-25T13:23:49.197Z,2.13
2022-12-25T13:26:19.182Z,2.20
2022-12-25T13:28:49.420Z,2.25
2022-12-25T13:31:20.559Z,2.30
2022-12-25T13:33:53.439Z,2.38
2022-12-25T13:36:21.612Z,1.95
2022-12-25T13:38:52.780Z,2.20
2022-12-25T13:41:40.706Z,1.80
2022-12-25T13:44:17.618Z,1.90
2022-12-25T13:46:45.685Z,2.13
2022-12-25T13:49:17.930Z,2.08
2022-12-25T13:51:46.640Z,2.10
2022-12-25T13:54:17.125Z,2.00
2022-12-25T13:56:48.984Z,2.53
2022-12-25T13:59:21.801Z,2.00
2022-12-25T14:01:51.281Z,1.80
2022-12-25T14:04:22.465Z,1.88
2022-12-25T14:06:51.596Z,1.83
2022-12-25T14:09:20.823Z,2.10
2022-12-25T14:11:53.702Z,1.63
2022-12-25T14:14:25.898Z,1.70
2022-12-25T14:16:58.288Z,1.85
2022-12-25T14:19:28.646Z,1.70
2022-12-25T14:22:01.578Z,1.50
2022-12-25T14:24:34.453Z,1.60
2022-12-25T14:27:05.936Z,1.40
2022-12-25T14:29:39.138Z,1.80
2022-12-25T14:32:09.115Z,3.05
2022-12-25T14:34:37.720Z,2.20
2022-12-25T14:37:06.861Z,2.08
2022-12-25T14:39:38.301Z,2.47
2022-12-25T14:42:17.347Z,1.92
2022-12-25T14:44:58.848Z,2.10
2022-12-25T14:47:28.404Z,2.20
2022-12-25T14:49:57.516Z,1.95
2022-12-25T14:52:29.129Z,2.20
2022-12-25T14:55:01.754Z,2.10
2022-12-25T14:57:33.260Z,2.17
2022-12-25T15:00:07.986Z,1.98
2022-12-25T15:02:47.648Z,1.90
2022-12-25T15:05:43.424Z,2.28
2022-12-25T15:08:26.034Z,2.15
2022-12-25T15:11:00.352Z,2.25
2022-12-25T15:13:30.059Z,1.90
2022-12-25T15:16:05.809Z,2.03
2022-12-25T15:18:39.697Z,1.90
2022-12-25T15:21:08.382Z,2.00
2022-12-25T15:23:36.490Z,2.22
2022-12-25T15:26:05.073Z,1.98
2022-12-25T15:28:33.643Z,1.80
2022-12-25T15:31:03.080Z,1.80
2022-12-25T15:33:31.782Z,2.00
2022-12-25T15:35:59.847Z,2.53
2022-12-25T15:38:27.912Z,2.22
2022-12-25T15:40:56.464Z,2.20
2022-12-25T15:43:40.985Z,2.63
2022-12-25T15:46:11.797Z,2.30
2022-12-25T15:48:40.348Z,2.15
2022-12-25T15:51:09.870Z,2.63
2022-12-25T15:53:38.044Z,2.63
2022-12-25T15:56:06.685Z,2.53
2022-12-25T15:58:34.786Z,2.63
2022-12-25T16:01:03.328Z,2.78
2022-12-25T16:03:32.803Z,2.58
2022-12-25T16:06:01.490Z,2.55
2022-12-25T16:08:30.036Z,2.20
2022-12-25T16:10:58.587Z,2.80
2022-12-25T16:13:27.136Z,2.70
2022-12-25T16:15:55.221Z,2.90
2022-12-25T16:18:24.423Z,2.92
2022-12-25T16:20:55.354Z,3.15
2022-12-25T16:23:24.278Z,2.60
2022-12-25T16:25:52.493Z,2.65
2022-12-25T16:28:20.564Z,2.38
2022-12-25T16:30:49.268Z,2.30
2022-12-25T16:33:17.817Z,2.65
2022-12-25T16:35:47.659Z,2.50
2022-12-25T16:38:17.582Z,2.60
2022-12-25T16:40:46.341Z,3.20
2022-12-25T16:43:21.895Z,3.92
2022-12-25T16:45:52.765Z,3.80
2022-12-25T16:48:20.897Z,3.72
2022-12-25T16:50:49.545Z,3.60
2022-12-25T16:53:20.025Z,3.30
2022-12-25T16:55:48.094Z,3.10
2022-12-25T16:58:16.713Z,2.90
2022-12-25T17:00:49.189Z,2.92
2022-12-25T17:03:17.679Z,3.10
2022-12-25T17:05:46.369Z,3.20
2022-12-25T17:08:15.097Z,3.20
2022-12-25T17:10:44.547Z,3.25
2022-12-25T17:13:13.105Z,3.42
2022-12-25T17:15:46.627Z,3.05
2022-12-25T17:18:22.323Z,3.22
2022-12-25T17:20:54.478Z,3.38
2022-12-25T17:23:23.026Z,3.20
2022-12-25T17:25:52.500Z,3.35
2022-12-25T17:28:21.046Z,3.17
2022-12-25T17:30:49.597Z,3.20
2022-12-25T17:33:18.196Z,3.33
2022-12-25T17:35:46.309Z,2.80
2022-12-25T17:38:14.433Z,3.10
2022-12-25T17:40:42.591Z,3.40
2022-12-25T17:43:17.325Z,3.50
2022-12-25T17:45:48.766Z,3.63
2022-12-25T17:48:17.815Z,3.88
2022-12-25T17:50:45.914Z,4.03
2022-12-25T17:53:14.844Z,3.55
2022-12-25T17:55:43.528Z,3.40
2022-12-25T17:58:13.398Z,3.50
2022-12-25T18:00:41.437Z,3.17
2022-12-25T18:03:11.906Z,3.40
2022-12-25T18:05:40.299Z,3.55
2022-12-25T18:08:08.848Z,3.23
2022-12-25T18:10:38.823Z,3.45
2022-12-25T18:13:07.730Z,3.33
2022-12-25T18:15:39.778Z,3.70
2022-12-25T18:18:10.010Z,3.40
2022-12-25T18:20:40.447Z,3.63
2022-12-25T18:23:08.819Z,3.72
2022-12-25T18:25:43.003Z,4.22
2022-12-25T18:28:11.500Z,3.42
2022-12-25T18:30:42.684Z,4.00
2022-12-25T18:33:11.628Z,2.90
2022-12-25T18:35:40.923Z,3.58
2022-12-25T18:38:10.312Z,3.45
2022-12-25T18:40:41.848Z,2.78
2022-12-25T18:43:10.680Z,3.10
2022-12-25T18:45:39.063Z,3.50
2022-12-25T18:48:10.082Z,3.10
2022-12-25T18:50:40.290Z,3.20
2022-12-25T18:53:08.961Z,2.90
2022-12-25T18:55:37.530Z,3.05
2022-12-25T18:58:05.584Z,3.17
2022-12-25T19:00:33.764Z,3.15
2022-12-25T19:03:02.029Z,3.08
2022-12-25T19:05:31.588Z,3.08
2022-12-25T19:07:59.760Z,3.33
2022-12-25T19:10:28.390Z,3.15
2022-12-25T19:12:56.509Z,3.70
2022-12-25T19:15:24.622Z,3.20
2022-12-25T19:17:52.758Z,3.75
2022-12-25T19:20:20.832Z,3.35
2022-12-25T19:22:50.345Z,3.50
2022-12-25T19:25:18.830Z,2.92
2022-12-25T19:27:47.386Z,3.35
2022-12-25T19:30:15.529Z,2.83
2022-12-25T19:32:43.870Z,3.33
2022-12-25T19:35:12.492Z,3.55
2022-12-25T19:37:43.638Z,3.65
2022-12-25T19:40:14.048Z,3.60
2022-12-25T19:42:42.178Z,3.40
2022-12-25T19:45:11.093Z,2.70
2022-12-25T19:47:39.256Z,3.30
2022-12-25T19:50:08.397Z,3.35
2022-12-25T19:52:37.013Z,3.40
2022-12-25T19:55:06.071Z,3.67
2022-12-25T19:57:36.072Z,3.70
2022-12-25T20:00:04.589Z,3.42
2022-12-25T20:02:33.250Z,3.60
2022-12-25T20:05:01.443Z,3.75
2022-12-25T20:07:31.057Z,3.70
2022-12-25T20:09:59.215Z,3.00
2022-12-25T20:12:27.341Z,3.55
2022-12-25T20:14:56.893Z,3.45
2022-12-25T20:17:25.071Z,3.80
2022-12-25T20:19:55.216Z,3.90
2022-12-25T20:22:23.307Z,4.13
2022-12-25T20:24:51.410Z,3.45
2022-12-25T20:27:22.756Z,3.92
2022-12-25T20:29:53.652Z,3.90
2022-12-25T20:32:23.950Z,3.92
2022-12-25T20:34:52.351Z,3.78
2022-12-25T20:37:20.520Z,4.20
2022-12-25T20:39:48.643Z,3.70
2022-12-25T20:42:16.836Z,3.92
2022-12-25T20:44:45.280Z,3.90
2022-12-25T20:47:14.345Z,3.72
2022-12-25T20:49:44.300Z,3.63
2022-12-25T20:52:12.891Z,3.80
2022-12-25T20:54:41.073Z,3.75
2022-12-25T20:57:10.227Z,3.90
2022-12-25T20:59:38.355Z,4.25
2022-12-25T21:02:08.197Z,3.63
2022-12-25T21:04:57.471Z,3.85
2022-12-25T21:07:26.055Z,4.20
2022-12-25T21:09:59.390Z,3.95
2022-12-25T21:12:27.788Z,4.10
2022-12-25T21:14:55.879Z,3.40
2022-12-25T21:17:25.020Z,3.75
2022-12-25T21:19:53.148Z,3.70
2022-12-25T21:22:22.651Z,3.30
2022-12-25T21:24:52.093Z,4.03
2022-12-25T21:27:20.235Z,4.20
2022-12-25T21:29:49.739Z,3.50
2022-12-25T21:32:35.549Z,2.97
2022-12-25T21:35:04.126Z,2.92
2022-12-25T21:37:35.283Z,3.00
2022-12-25T21:40:03.526Z,2.80
2022-12-25T21:42:34.630Z,2.85
2022-12-25T21:45:02.731Z,2.38
2022-12-25T21:48:01.777Z,2.60
2022-12-25T21:50:39.480Z,2.38
2022-12-25T21:53:09.413Z,2.75
2022-12-25T21:55:38.760Z,2.97
2022-12-25T21:58:07.313Z,2.90
2022-12-25T22:00:35.423Z,2.95
2022-12-25T22:03:04.132Z,3.03
2022-12-25T22:05:50.098Z,2.63
2022-12-25T22:08:19.568Z,2.30
2022-12-25T22:10:48.215Z,2.40
2022-12-25T22:13:33.852Z,2.53
2022-12-25T22:16:23.058Z,2.30
2022-12-25T22:19:10.024Z,2.65
2022-12-25T22:21:39.157Z,2.65
2022-12-25T22:24:10.054Z,2.38
2022-12-25T22:26:38.636Z,2.65
2022-12-25T22:29:06.997Z,2.70
2022-12-25T22:31:38.266Z,2.75
2022-12-25T22:34:11.226Z,2.42
2022-12-25T22:36:40.769Z,2.67
2022-12-25T22:39:10.253Z,2.63
2022-12-25T22:41:38.978Z,2.28
2022-12-25T22:44:16.931Z,2.40
2022-12-25T22:46:46.474Z,2.60
2022-12-25T22:49:16.523Z,2.38
2022-12-25T22:51:45.454Z,2.50
2022-12-25T22:54:16.804Z,2.30
2022-12-25T22:56:46.952Z,2.22
2022-12-25T22:59:16.812Z,2.50
2022-12-25T23:01:45.562Z,2.70
2022-12-25T23:04:17.486Z,2.35
2022-12-25T23:06:46.561Z,2.20
2022-12-25T23:09:24.153Z,2.40
2022-12-25T23:11:52.810Z,1.90
2022-12-25T23:14:38.571Z,2.03
2022-12-25T23:17:07.768Z,2.90
2022-12-25T23:19:56.234Z,2.40
2022-12-25T23:22:42.116Z,2.00
2022-12-25T23:25:33.930Z,2.25
2022-12-25T23:28:02.464Z,2.30
2022-12-25T23:30:29.566Z,2.30
2022-12-25T23:33:01.028Z,2.35
2022-12-25T23:35:30.433Z,2.00
2022-12-25T23:37:58.491Z,2.42
2022-12-25T23:40:28.394Z,2.35
2022-12-25T23:42:56.446Z,2.20
2022-12-25T23:45:24.581Z,2.03
2022-12-25T23:47:52.650Z,2.30
2022-12-25T23:50:21.218Z,2.40
2022-12-25T23:52:49.801Z,2.05
2022-12-25T23:55:18.392Z,2.80
2022-12-25T23:57:47.853Z,2.80
